Time;durP1;ratioP1;P1;durP2;ratioP2;P2;SDS_P1;SDS_P2;PMS_P1;PMS_P2;Temp;Humidity;BMP_temperature;BMP_pressure;BME280_temperature;BME280_humidity;BME280_pressure;Samples;Min_cycle;Max_cycle;Signal;HPM_P1;HPM_P2
2021/03/23 00:01:26;;;;;;;24.90;22.30;;;10.70;60.90;;;;;;5085128;28;20628;-52
2021/03/23 00:03:53;;;;;;;27.30;20.83;;;10.80;60.80;;;;;;5090473;28;20683;-52
2021/03/23 00:06:21;;;;;;;23.03;20.63;;;10.80;60.60;;;;;;5093831;28;20684;-51
2021/03/23 00:08:48;;;;;;;25.50;21.87;;;10.80;60.70;;;;;;5093694;28;20923;-51
2021/03/23 00:11:17;;;;;;;24.77;20.30;;;10.80;60.80;;;;;;5092236;28;20667;-51
2021/03/23 00:13:45;;;;;;;21.77;19.47;;;10.80;61.20;;;;;;5093386;28;20651;-51
2021/03/23 00:16:11;;;;;;;21.00;18.70;;;10.80;61.30;;;;;;5089823;28;21073;-51
2021/03/23 00:18:39;;;;;;;24.83;22.17;;;10.80;61.10;;;;;;5084582;28;20676;-51
2021/03/23 00:21:06;;;;;;;23.63;20.63;;;10.80;61.10;;;;;;5094958;28;20658;-52
2021/03/23 00:23:32;;;;;;;28.77;21.00;;;10.80;61.50;;;;;;5096490;28;20671;-51
2021/03/23 00:25:59;;;;;;;23.73;21.23;;;10.80;61.40;;;;;;5097021;28;20707;-51
2021/03/23 00:28:27;;;;;;;26.07;20.67;;;10.70;61.40;;;;;;5093003;28;20640;-51
2021/03/23 00:30:54;;;;;;;27.00;22.80;;;10.80;61.50;;;;;;5095029;28;20623;-51
2021/03/23 00:33:20;;;;;;;22.40;20.00;;;10.80;61.20;;;;;;5102139;28;20738;-52
2021/03/23 00:35:47;;;;;;;23.97;20.27;;;10.90;61.20;;;;;;5090080;28;20717;-52
2021/03/23 00:38:14;;;;;;;23.93;20.03;;;10.80;61.70;;;;;;5092561;28;21281;-51
2021/03/23 00:40:41;;;;;;;24.53;21.93;;;10.80;61.00;;;;;;5098472;28;21280;-52
2021/03/23 00:43:09;;;;;;;23.43;20.90;;;10.80;61.10;;;;;;5090909;28;20652;-51
2021/03/23 00:45:38;;;;;;;28.73;22.30;;;10.70;61.10;;;;;;5097309;28;20709;-51
2021/03/23 00:48:05;;;;;;;25.33;19.90;;;10.70;60.90;;;;;;5086529;28;21304;-51
2021/03/23 00:50:32;;;;;;;24.37;21.80;;;10.80;61.30;;;;;;5094244;28;20648;-51
2021/03/23 00:52:59;;;;;;;20.50;17.93;;;10.80;61.30;;;;;;5104319;28;20650;-52
2021/03/23 00:55:26;;;;;;;23.00;19.50;;;10.80;61.40;;;;;;5092356;28;20657;-51
2021/03/23 00:57:52;;;;;;;20.97;18.67;;;10.70;61.30;;;;;;5086490;28;21048;-51
2021/03/23 01:00:20;;;;;;;25.93;19.57;;;10.80;61.20;;;;;;5095841;28;20627;-51
2021/03/23 01:02:48;;;;;;;26.53;21.40;;;10.80;62.00;;;;;;5098298;28;20663;-52
2021/03/23 01:05:16;;;;;;;27.90;20.90;;;10.80;61.30;;;;;;5095373;28;20695;-51
2021/03/23 01:07:42;;;;;;;24.37;21.47;;;10.80;61.40;;;;;;5097480;28;20683;-51
2021/03/23 01:10:11;;;;;;;22.07;19.60;;;10.80;61.40;;;;;;5078565;28;20661;-51
2021/03/23 01:12:37;;;;;;;25.33;20.03;;;10.80;61.30;;;;;;5079476;28;20668;-51
2021/03/23 01:15:06;;;;;;;23.30;20.40;;;10.80;61.30;;;;;;5079380;28;20677;-52
2021/03/23 01:17:32;;;;;;;24.40;20.77;;;10.80;61.10;;;;;;5084782;28;21277;-51
2021/03/23 01:20:00;;;;;;;23.97;19.47;;;10.80;60.90;;;;;;5095837;28;20651;-51
2021/03/23 01:22:27;;;;;;;22.47;18.60;;;10.80;61.00;;;;;;5094287;28;20664;-51
2021/03/23 01:24:54;;;;;;;27.17;21.03;;;10.70;60.80;;;;;;5097353;28;20690;-52
2021/03/23 01:27:20;;;;;;;25.87;19.77;;;10.70;61.00;;;;;;5094491;28;20669;-51
2021/03/23 01:29:47;;;;;;;25.97;20.60;;;10.60;61.10;;;;;;5096785;28;20627;-52
2021/03/23 01:32:14;;;;;;;24.20;19.73;;;10.60;61.50;;;;;;5092266;28;21204;-52
2021/03/23 01:34:41;;;;;;;26.27;19.67;;;10.60;61.60;;;;;;5097600;28;20655;-52
2021/03/23 01:37:08;;;;;;;23.90;20.00;;;10.60;61.50;;;;;;5091784;28;20672;-52
2021/03/23 01:39:35;;;;;;;27.20;20.80;;;10.60;61.50;;;;;;5090611;28;20624;-51
2021/03/23 01:42:02;;;;;;;24.47;19.83;;;10.60;61.70;;;;;;5092788;28;20693;-51
2021/03/23 01:44:29;;;;;;;26.90;19.80;;;10.70;61.70;;;;;;5092201;28;20711;-51
2021/03/23 01:46:55;;;;;;;25.37;19.83;;;10.60;62.40;;;;;;5089381;28;20723;-52
2021/03/23 01:49:23;;;;;;;24.87;20.70;;;10.60;61.90;;;;;;5095302;28;20659;-51
2021/03/23 01:51:52;;;;;;;24.17;20.17;;;10.60;62.20;;;;;;5095307;28;21204;-51
2021/03/23 01:54:22;;;;;;;23.90;19.60;;;10.70;63.30;;;;;;5102452;28;20734;-51
2021/03/23 01:56:49;;;;;;;23.53;20.07;;;10.60;63.40;;;;;;5095479;28;21401;-51
2021/03/23 01:59:16;;;;;;;25.13;20.43;;;10.70;64.10;;;;;;5092134;28;20632;-51
2021/03/23 02:01:42;;;;;;;30.17;21.70;;;10.70;64.80;;;;;;5095780;28;20659;-51
2021/03/23 02:04:09;;;;;;;24.70;20.13;;;10.70;64.60;;;;;;5099526;28;20651;-51
2021/03/23 02:06:40;;;;;;;21.57;18.90;;;10.70;64.60;;;;;;5089435;28;20651;-51
2021/03/23 02:09:10;;;;;;;22.60;18.70;;;10.70;64.60;;;;;;5091139;28;20667;-51
2021/03/23 02:11:41;;;;;;;25.67;20.77;;;10.70;64.50;;;;;;5091104;28;20655;-51
2021/03/23 02:14:08;;;;;;;28.70;23.10;;;10.70;63.50;;;;;;5078857;28;21166;-51
2021/03/23 02:16:35;;;;;;;26.70;19.60;;;10.60;63.20;;;;;;5077831;28;20656;-50
2021/03/23 02:19:02;;;;;;;25.60;19.67;;;10.50;63.20;;;;;;5092710;28;20632;-50
2021/03/23 02:21:30;;;;;;;20.43;18.30;;;10.50;63.40;;;;;;5085206;28;20624;-51
2021/03/23 02:23:57;;;;;;;27.73;18.83;;;10.40;63.40;;;;;;5088753;28;20688;-51
2021/03/23 02:26:24;;;;;;;25.97;18.83;;;10.40;63.50;;;;;;5079049;28;20696;-51
2021/03/23 02:28:53;;;;;;;26.90;18.23;;;10.40;63.70;;;;;;5079429;28;20708;-51
2021/03/23 02:31:23;;;;;;;22.67;19.47;;;10.30;63.70;;;;;;5091920;28;20625;-50
2021/03/23 02:33:50;;;;;;;26.30;20.53;;;10.30;63.90;;;;;;5095917;28;20663;-51
2021/03/23 02:36:16;;;;;;;20.87;16.53;;;10.30;64.20;;;;;;5093141;28;20691;-50
2021/03/23 02:38:44;;;;;;;22.37;19.27;;;10.30;64.30;;;;;;5091869;28;20676;-50
2021/03/23 02:41:11;;;;;;;26.80;19.40;;;10.30;65.10;;;;;;5094006;28;20656;-52
2021/03/23 02:43:37;;;;;;;19.87;17.37;;;10.30;64.80;;;;;;5095581;28;20667;-51
2021/03/23 02:46:04;;;;;;;22.83;18.23;;;10.40;65.20;;;;;;5086181;28;20702;-50
2021/03/23 02:48:31;;;;;;;32.00;19.30;;;10.40;65.20;;;;;;5089218;28;20667;-50
2021/03/23 02:50:58;;;;;;;23.70;19.00;;;10.40;65.00;;;;;;5095760;28;20662;-50
2021/03/23 02:53:25;;;;;;;21.20;17.80;;;10.40;65.10;;;;;;5089031;28;20656;-51
2021/03/23 02:55:52;;;;;;;23.23;20.70;;;10.40;65.10;;;;;;5091802;28;20691;-50
2021/03/23 02:58:19;;;;;;;21.17;17.47;;;10.40;65.20;;;;;;5097945;28;20667;-50
2021/03/23 03:00:46;;;;;;;22.83;18.07;;;10.40;65.20;;;;;;5097337;28;20632;-50
2021/03/23 03:03:13;;;;;;;26.27;20.70;;;10.40;65.30;;;;;;5096105;28;20676;-50
2021/03/23 03:05:40;;;;;;;26.50;20.10;;;10.30;65.30;;;;;;5090877;28;20704;-50
2021/03/23 03:08:06;;;;;;;20.80;17.57;;;10.30;65.40;;;;;;5090246;28;20624;-50
2021/03/23 03:10:33;;;;;;;26.07;20.93;;;10.30;65.40;;;;;;5095308;28;21220;-51
2021/03/23 03:13:01;;;;;;;25.80;19.20;;;10.30;65.80;;;;;;5089408;28;20666;-51
2021/03/23 03:15:28;;;;;;;23.63;18.30;;;10.40;65.80;;;;;;5095234;28;20692;-51
2021/03/23 03:17:55;;;;;;;23.17;19.07;;;10.40;65.80;;;;;;5089373;28;20627;-51
2021/03/23 03:20:22;;;;;;;24.20;19.30;;;10.30;65.90;;;;;;5092254;28;20671;-49
2021/03/23 03:22:49;;;;;;;23.70;17.87;;;10.30;66.80;;;;;;5089352;28;20632;-51
2021/03/23 03:25:17;;;;;;;25.80;19.80;;;10.30;66.30;;;;;;5080392;28;20750;-52
2021/03/23 03:27:43;;;;;;;24.53;19.97;;;10.30;66.30;;;;;;5090370;28;20990;-51
2021/03/23 03:30:18;;;;;;;26.30;19.90;;;10.30;66.00;;;;;;5100174;28;20667;-51
2021/03/23 03:32:45;;;;;;;25.07;20.13;;;10.30;66.00;;;;;;5090555;28;20653;-52
2021/03/23 03:35:12;;;;;;;24.53;21.30;;;10.30;66.00;;;;;;5084541;28;20701;-51
2021/03/23 03:37:39;;;;;;;24.97;19.60;;;10.20;66.80;;;;;;5099280;28;20672;-51
2021/03/23 03:40:07;;;;;;;24.77;20.07;;;10.20;66.50;;;;;;5095604;28;20632;-51
2021/03/23 03:42:34;;;;;;;24.77;19.07;;;10.20;66.90;;;;;;5090829;28;20660;-51
2021/03/23 03:45:01;;;;;;;24.00;19.07;;;10.20;67.20;;;;;;5097746;28;20703;-51
2021/03/23 03:47:28;;;;;;;27.80;20.07;;;10.10;67.10;;;;;;5095032;28;20699;-52
2021/03/23 03:49:55;;;;;;;24.20;18.73;;;10.10;67.40;;;;;;5096341;28;20659;-51
2021/03/23 03:52:22;;;;;;;25.37;17.90;;;10.10;67.60;;;;;;5092079;28;20647;-51
2021/03/23 03:54:49;;;;;;;25.43;19.90;;;10.10;67.60;;;;;;5097818;28;21030;-52
2021/03/23 03:57:15;;;;;;;28.63;19.97;;;10.20;67.60;;;;;;5094473;28;21199;-51
2021/03/23 03:59:42;;;;;;;17.43;15.63;;;10.20;67.20;;;;;;5095675;28;20660;-51
2021/03/23 04:02:09;;;;;;;24.40;19.40;;;10.10;67.10;;;;;;5088168;28;20640;-51
2021/03/23 04:04:36;;;;;;;25.47;20.43;;;10.10;67.30;;;;;;5094723;28;21020;-51
2021/03/23 04:07:04;;;;;;;33.23;20.40;;;10.10;67.30;;;;;;5090303;28;21046;-51
2021/03/23 04:09:30;;;;;;;26.57;18.37;;;10.10;67.80;;;;;;5090293;28;20690;-51
2021/03/23 04:11:57;;;;;;;22.87;18.03;;;10.10;67.40;;;;;;5093185;28;20767;-51
2021/03/23 04:14:24;;;;;;;25.20;18.90;;;10.20;67.40;;;;;;5081330;28;20624;-51
2021/03/23 04:16:51;;;;;;;24.30;18.30;;;10.20;67.10;;;;;;5097272;28;20643;-53
2021/03/23 04:19:17;;;;;;;25.07;19.47;;;10.10;66.60;;;;;;5088517;28;20668;-51
2021/03/23 04:21:45;;;;;;;25.47;19.67;;;10.10;66.70;;;;;;5102959;28;20655;-51
2021/03/23 04:24:12;;;;;;;21.90;17.00;;;10.00;66.90;;;;;;5099161;28;20628;-52
2021/03/23 04:26:38;;;;;;;24.23;17.93;;;10.00;67.10;;;;;;5096243;28;20703;-52
2021/03/23 04:29:05;;;;;;;27.77;20.60;;;10.00;67.40;;;;;;5102148;28;20627;-50
2021/03/23 04:31:35;;;;;;;25.77;20.57;;;9.90;69.00;;;;;;5094428;28;20733;-51
2021/03/23 04:34:02;;;;;;;29.73;21.07;;;9.90;69.30;;;;;;5095692;27;20667;-50
2021/03/23 04:36:28;;;;;;;26.20;20.40;;;9.90;69.60;;;;;;5085574;28;20685;-51
2021/03/23 04:38:56;;;;;;;26.60;20.77;;;9.90;70.00;;;;;;5091356;28;20717;-52
2021/03/23 04:41:23;;;;;;;27.23;19.07;;;9.90;70.30;;;;;;5089987;28;20633;-51
2021/03/23 04:43:51;;;;;;;26.67;21.27;;;10.00;69.00;;;;;;5105466;28;20675;-50
2021/03/23 04:46:20;;;;;;;30.20;21.53;;;10.00;68.70;;;;;;5099066;28;20700;-51
2021/03/23 04:48:46;;;;;;;28.67;21.70;;;10.00;68.70;;;;;;5093392;28;20617;-51
2021/03/23 04:51:13;;;;;;;34.33;22.73;;;10.00;69.40;;;;;;5100345;28;21168;-51
2021/03/23 04:53:41;;;;;;;27.70;20.60;;;10.10;68.80;;;;;;5095907;28;21204;-51
2021/03/23 04:56:16;;;;;;;27.83;19.93;;;10.00;68.70;;;;;;5092156;28;21255;-51
2021/03/23 04:58:43;;;;;;;28.70;21.00;;;10.00;69.50;;;;;;5095568;28;20683;-51
2021/03/23 05:01:10;;;;;;;28.80;21.57;;;10.00;69.00;;;;;;5093204;28;20706;-50
2021/03/23 05:03:37;;;;;;;31.10;23.33;;;10.00;69.30;;;;;;5099818;28;20638;-51
2021/03/23 05:06:07;;;;;;;29.30;20.97;;;10.00;69.50;;;;;;5095001;28;20712;-51
2021/03/23 05:08:34;;;;;;;31.80;22.20;;;10.00;69.60;;;;;;5101917;28;20612;-50
2021/03/23 05:11:01;;;;;;;32.53;22.43;;;10.00;70.30;;;;;;5095932;28;20635;-51
2021/03/23 05:13:29;;;;;;;32.20;21.80;;;10.00;69.90;;;;;;5089895;28;20662;-51
2021/03/23 05:15:56;;;;;;;31.80;22.10;;;10.00;70.00;;;;;;5086545;28;20651;-52
2021/03/23 05:18:23;;;;;;;34.63;23.00;;;10.00;70.00;;;;;;5095573;28;21030;-51
2021/03/23 05:20:50;;;;;;;26.50;20.27;;;10.00;70.00;;;;;;5090284;28;20678;-51
2021/03/23 05:23:17;;;;;;;26.60;20.43;;;10.00;70.00;;;;;;5090650;28;21173;-51
2021/03/23 05:25:44;;;;;;;30.77;22.30;;;10.00;69.90;;;;;;5095189;28;20719;-51
2021/03/23 05:28:10;;;;;;;30.17;21.53;;;10.00;70.10;;;;;;5096876;28;20658;-52
2021/03/23 05:30:38;;;;;;;31.63;20.90;;;10.00;70.30;;;;;;5090028;28;21080;-52
2021/03/23 05:33:05;;;;;;;28.47;21.60;;;9.90;71.70;;;;;;5086588;28;20663;-52
2021/03/23 05:35:32;;;;;;;33.13;21.73;;;9.90;71.90;;;;;;5091826;28;20695;-51
2021/03/23 05:38:00;;;;;;;28.67;21.00;;;9.80;71.90;;;;;;5088234;28;21074;-52
2021/03/23 05:40:28;;;;;;;25.30;18.83;;;9.70;72.50;;;;;;5095468;28;21157;-52
2021/03/23 05:43:04;;;;;;;30.83;23.33;;;9.70;73.00;;;;;;5092820;28;20666;-53
2021/03/23 05:45:35;;;;;;;27.90;20.20;;;9.70;73.00;;;;;;5090365;28;20688;-53
2021/03/23 05:48:19;;;;;;;26.60;21.00;;;9.80;73.10;;;;;;5086994;28;20655;-53
2021/03/23 05:50:48;;;;;;;29.73;22.60;;;9.70;72.90;;;;;;5094161;28;21180;-53
2021/03/23 05:53:17;;;;;;;24.67;20.33;;;9.70;73.00;;;;;;5094009;28;20671;-52
2021/03/23 05:55:45;;;;;;;35.07;22.67;;;9.80;73.10;;;;;;5091025;28;20681;-50
2021/03/23 05:58:15;;;;;;;29.37;18.43;;;9.80;73.10;;;;;;5093849;28;20666;-50
2021/03/23 06:00:42;;;;;;;26.57;19.47;;;9.80;73.20;;;;;;5093036;28;21242;-52
2021/03/23 06:03:17;;;;;;;27.53;19.07;;;9.80;73.60;;;;;;5096316;28;21418;-51
2021/03/23 06:05:46;;;;;;;34.17;21.13;;;9.70;73.30;;;;;;5099797;28;21270;-51
2021/03/23 06:08:27;;;;;;;32.10;20.50;;;9.70;73.30;;;;;;5096937;28;21207;-51
2021/03/23 06:11:30;;;;;;;26.13;19.20;;;9.70;73.40;;;;;;5095580;28;21019;-52
2021/03/23 06:14:17;;;;;;;24.50;19.80;;;9.70;73.40;;;;;;5080860;28;20623;-50
2021/03/23 06:16:48;;;;;;;26.17;20.17;;;9.80;73.50;;;;;;5091430;28;20705;-51
2021/03/23 06:19:18;;;;;;;28.03;18.40;;;9.80;73.50;;;;;;5089097;28;20620;-52
2021/03/23 06:21:47;;;;;;;33.80;19.77;;;9.80;73.50;;;;;;5088249;28;20659;-51
2021/03/23 06:24:22;;;;;;;24.50;18.83;;;9.90;73.20;;;;;;5087930;28;20613;-51
2021/03/23 06:26:53;;;;;;;25.73;19.93;;;9.90;72.80;;;;;;5083874;28;20687;-52
2021/03/23 06:29:28;;;;;;;28.43;19.93;;;10.00;71.20;;;;;;5086947;28;20676;-51
2021/03/23 06:32:33;;;;;;;28.23;19.93;;;10.00;72.00;;;;;;5089794;28;20716;-51
2021/03/23 06:35:00;;;;;;;27.30;19.97;;;10.00;70.80;;;;;;5040531;28;21180;-51
2021/03/23 06:37:29;;;;;;;26.30;20.20;;;10.00;70.60;;;;;;5024869;28;20635;-51
2021/03/23 06:39:56;;;;;;;24.83;16.83;;;10.00;70.70;;;;;;5054346;28;20619;-51
2021/03/23 06:42:31;;;;;;;30.10;20.40;;;10.00;70.90;;;;;;5096757;28;20647;-51
2021/03/23 06:45:32;;;;;;;32.87;21.87;;;10.00;70.40;;;;;;5086523;28;20815;-52
2021/03/23 06:48:14;;;;;;;26.63;19.40;;;10.00;70.40;;;;;;5073107;28;20656;-51
2021/03/23 06:50:41;;;;;;;28.67;20.40;;;10.00;70.20;;;;;;5087385;28;20632;-51
2021/03/23 06:53:11;;;;;;;27.87;20.67;;;10.00;69.80;;;;;;5086110;28;20700;-51
2021/03/23 06:55:38;;;;;;;30.80;22.73;;;10.00;69.90;;;;;;5088446;28;20671;-52
2021/03/23 06:58:23;;;;;;;29.33;18.43;;;10.00;70.00;;;;;;5086564;28;20656;-51
2021/03/23 07:01:25;;;;;;;29.60;19.83;;;10.00;70.10;;;;;;5087272;28;20734;-52
2021/03/23 07:03:53;;;;;;;26.70;20.17;;;10.00;70.10;;;;;;5082680;28;20650;-51
2021/03/23 07:06:24;;;;;;;30.50;19.53;;;10.10;70.20;;;;;;5090302;28;20708;-51
2021/03/23 07:09:10;;;;;;;26.00;18.67;;;10.10;69.80;;;;;;5100212;28;20631;-51
2021/03/23 07:11:57;;;;;;;28.07;19.80;;;10.10;68.80;;;;;;5094750;28;20625;-51
2021/03/23 07:14:33;;;;;;;26.23;18.60;;;9.90;70.60;;;;;;5096306;28;21268;-50
2021/03/23 07:17:12;;;;;;;35.03;18.73;;;9.90;71.90;;;;;;5087107;28;20669;-51
2021/03/23 07:19:45;;;;;;;29.70;20.27;;;9.90;71.60;;;;;;5095030;28;21259;-51
2021/03/23 07:22:18;;;;;;;24.00;19.90;;;9.90;71.70;;;;;;5091639;28;20635;-52
2021/03/23 07:24:53;;;;;;;34.03;19.70;;;10.00;70.20;;;;;;5095162;28;21081;-53
2021/03/23 07:27:21;;;;;;;30.37;20.00;;;10.10;69.80;;;;;;5088524;28;20679;-51
2021/03/23 07:29:47;;;;;;;26.23;20.00;;;10.10;69.00;;;;;;5105111;28;21253;-51
2021/03/23 07:32:29;;;;;;;25.10;20.10;;;10.20;69.00;;;;;;5097061;28;20624;-51
2021/03/23 07:35:03;;;;;;;31.80;20.33;;;10.20;68.90;;;;;;5095356;28;20688;-52
2021/03/23 07:37:37;;;;;;;40.10;29.50;;;10.30;68.60;;;;;;5091300;28;21017;-51
2021/03/23 07:40:07;;;;;;;30.90;21.90;;;10.30;68.70;;;;;;5093276;28;21056;-51
2021/03/23 07:42:36;;;;;;;32.60;20.07;;;10.30;68.10;;;;;;5094268;27;20653;-50
2021/03/23 07:45:06;;;;;;;33.53;18.57;;;10.30;68.00;;;;;;5094648;28;20680;-52
2021/03/23 07:47:36;;;;;;;24.23;18.67;;;10.40;68.00;;;;;;5108492;28;21211;-52
2021/03/23 07:50:14;;;;;;;27.77;21.13;;;10.50;67.70;;;;;;5092801;28;20655;-52
2021/03/23 07:52:43;;;;;;;30.27;19.80;;;10.50;67.30;;;;;;5096574;28;20631;-53
2021/03/23 07:55:17;;;;;;;33.63;19.63;;;10.60;67.50;;;;;;5097727;28;20659;-53
2021/03/23 07:58:00;;;;;;;27.93;20.63;;;10.60;65.60;;;;;;5092972;28;20643;-53
2021/03/23 08:01:03;;;;;;;24.63;18.33;;;10.60;65.40;;;;;;5091663;28;20681;-50
2021/03/23 08:03:52;;;;;;;30.37;20.60;;;10.60;65.30;;;;;;5065834;28;20944;-50
2021/03/23 08:06:24;;;;;;;27.93;18.47;;;10.60;64.60;;;;;;5090173;28;20696;-50
2021/03/23 08:09:25;;;;;;;27.27;20.43;;;10.60;64.40;;;;;;5092843;28;20685;-50
2021/03/23 08:11:55;;;;;;;24.00;18.83;;;10.60;64.40;;;;;;5083873;28;20642;-51
2021/03/23 08:14:46;;;;;;;28.73;20.27;;;10.60;63.60;;;;;;5094721;28;21010;-51
2021/03/23 08:17:27;;;;;;;24.00;17.33;;;10.50;64.10;;;;;;5081727;28;20664;-51
2021/03/23 08:20:03;;;;;;;22.20;17.13;;;10.50;64.30;;;;;;5098767;28;20678;-51
2021/03/23 08:22:50;;;;;;;25.83;19.97;;;10.50;64.40;;;;;;5094556;28;20631;-51
2021/03/23 08:25:21;;;;;;;24.47;17.60;;;10.60;64.90;;;;;;5087193;28;20726;-51
2021/03/23 08:27:54;;;;;;;27.03;18.23;;;10.60;64.90;;;;;;5101807;28;20677;-52
2021/03/23 08:30:31;;;;;;;24.53;18.57;;;10.70;64.60;;;;;;5094733;28;20703;-52
2021/03/23 08:33:01;;;;;;;25.53;19.60;;;10.80;64.60;;;;;;5098787;28;20644;-52
2021/03/23 08:35:59;;;;;;;26.97;18.67;;;10.90;64.00;;;;;;5092645;28;20712;-52
2021/03/23 08:38:46;;;;;;;29.60;20.70;;;11.00;62.70;;;;;;5095929;28;20658;-52
2021/03/23 08:41:17;;;;;;;27.23;19.10;;;11.00;61.00;;;;;;5095981;28;20688;-51
2021/03/23 08:43:45;;;;;;;24.10;20.20;;;11.00;60.30;;;;;;5101943;28;20632;-52
2021/03/23 08:46:15;;;;;;;25.00;19.40;;;11.00;59.80;;;;;;5093437;28;20713;-52
2021/03/23 08:48:46;;;;;;;24.13;18.50;;;10.90;59.90;;;;;;5090988;28;20697;-53
2021/03/23 08:51:14;;;;;;;25.83;17.83;;;11.00;59.70;;;;;;5104580;28;20996;-53
2021/03/23 08:53:54;;;;;;;27.17;21.00;;;11.00;58.50;;;;;;5103139;28;20751;-52
2021/03/23 08:56:58;;;;;;;26.60;20.43;;;10.90;58.10;;;;;;5097551;28;20680;-51
2021/03/23 08:59:51;;;;;;;27.67;22.07;;;10.80;58.00;;;;;;5080626;28;20656;-51
2021/03/23 09:02:36;;;;;;;27.23;22.03;;;10.70;58.30;;;;;;5087309;28;20714;-53
2021/03/23 09:05:03;;;;;;;25.07;19.70;;;10.70;57.40;;;;;;5089548;28;20692;-52
2021/03/23 09:07:32;;;;;;;20.43;17.73;;;10.70;57.30;;;;;;5097281;28;20721;-53
2021/03/23 09:09:59;;;;;;;28.43;20.63;;;10.70;56.80;;;;;;5095196;28;20716;-53
2021/03/23 09:12:36;;;;;;;24.93;19.20;;;10.70;56.70;;;;;;5095844;28;20644;-53
2021/03/23 09:15:21;;;;;;;27.77;21.03;;;10.60;56.30;;;;;;5096530;28;21069;-53
2021/03/23 09:17:57;;;;;;;26.50;20.97;;;10.60;56.30;;;;;;5094621;28;20630;-53
2021/03/23 09:21:09;;;;;;;22.77;18.57;;;10.60;56.80;;;;;;5098831;28;21236;-53
2021/03/23 09:23:52;;;;;;;26.70;20.67;;;10.80;57.10;;;;;;5099766;28;21010;-53
2021/03/23 09:26:43;;;;;;;23.43;17.87;;;10.90;56.10;;;;;;5096449;28;21165;-51
2021/03/23 09:29:46;;;;;;;25.27;19.90;;;10.90;57.50;;;;;;5096906;28;21176;-51
2021/03/23 09:32:17;;;;;;;27.67;21.10;;;11.20;57.80;;;;;;5100833;28;21021;-50
2021/03/23 09:35:24;;;;;;;22.17;18.80;;;11.30;55.90;;;;;;5112340;28;21292;-51
2021/03/23 09:37:56;;;;;;;22.67;17.50;;;11.40;55.20;;;;;;5107661;28;20987;-51
2021/03/23 09:40:50;;;;;;;22.73;19.20;;;11.50;55.30;;;;;;5093282;28;21306;-51
2021/03/23 09:43:28;;;;;;;24.43;20.60;;;11.70;55.20;;;;;;5094099;28;20612;-49
2021/03/23 09:45:58;;;;;;;26.93;18.10;;;11.80;54.70;;;;;;5092935;28;20683;-51
2021/03/23 09:48:59;;;;;;;24.47;18.00;;;11.80;53.00;;;;;;5092554;28;20720;-51
2021/03/23 09:51:48;;;;;;;21.80;15.73;;;11.60;52.80;;;;;;5090578;28;20629;-52
2021/03/23 09:54:21;;;;;;;25.70;18.67;;;11.40;52.80;;;;;;5082637;28;20641;-51
2021/03/23 09:56:49;;;;;;;27.97;20.20;;;11.30;53.50;;;;;;5085977;28;20616;-51
2021/03/23 09:59:18;;;;;;;21.80;16.90;;;11.30;53.70;;;;;;5091718;28;20680;-52
2021/03/23 10:02:00;;;;;;;23.27;18.87;;;11.20;53.50;;;;;;5086812;28;20687;-51
2021/03/23 10:04:30;;;;;;;24.33;19.17;;;11.30;53.70;;;;;;5099924;28;21176;-50
2021/03/23 10:06:58;;;;;;;23.50;17.43;;;11.30;53.80;;;;;;5072314;28;20648;-51
2021/03/23 10:09:27;;;;;;;22.40;17.13;;;11.40;53.50;;;;;;5089925;28;20658;-51
2021/03/23 10:11:54;;;;;;;22.60;18.47;;;11.30;53.20;;;;;;5092159;28;20630;-50
2021/03/23 10:14:32;;;;;;;23.43;19.90;;;11.30;53.40;;;;;;5091927;28;20710;-51
2021/03/23 10:17:11;;;;;;;24.20;19.40;;;11.30;53.20;;;;;;5076394;28;20675;-50
2021/03/23 10:19:48;;;;;;;25.37;19.20;;;11.10;52.90;;;;;;5071243;28;20660;-51
2021/03/23 10:22:16;;;;;;;23.47;18.27;;;11.10;53.30;;;;;;5071208;28;20665;-50
2021/03/23 10:24:45;;;;;;;22.33;17.87;;;11.10;53.60;;;;;;5071241;28;20693;-51
2021/03/23 10:27:16;;;;;;;23.07;19.40;;;11.20;53.50;;;;;;5087528;28;20724;-51
2021/03/23 10:30:11;;;;;;;29.13;21.40;;;11.30;53.20;;;;;;5091589;28;20620;-49
2021/03/23 10:32:46;;;;;;;26.10;17.73;;;11.30;53.00;;;;;;5088724;28;20663;-50
2021/03/23 10:35:19;;;;;;;23.47;19.00;;;11.40;53.00;;;;;;5103120;28;20659;-49
2021/03/23 10:37:46;;;;;;;25.23;19.93;;;11.50;52.40;;;;;;5084775;28;20658;-49
2021/03/23 10:40:31;;;;;;;21.73;18.77;;;11.60;52.60;;;;;;5099774;28;20673;-50
2021/03/23 10:42:58;;;;;;;24.40;17.73;;;11.70;51.90;;;;;;5071075;28;20677;-50
2021/03/23 10:45:30;;;;;;;25.13;18.63;;;11.70;51.70;;;;;;5070838;28;21064;-49
2021/03/23 10:48:03;;;;;;;23.00;19.70;;;11.70;51.30;;;;;;5069453;28;20683;-50
2021/03/23 10:50:32;;;;;;;25.27;21.47;;;11.70;51.80;;;;;;5071040;28;20704;-50
2021/03/23 10:53:14;;;;;;;21.90;19.43;;;11.70;52.10;;;;;;5071331;28;20712;-50
2021/03/23 10:55:42;;;;;;;20.80;17.60;;;11.70;51.80;;;;;;5070792;28;20652;-50
2021/03/23 10:58:20;;;;;;;32.83;18.20;;;11.70;51.50;;;;;;5070982;28;20625;-49
2021/03/23 11:00:47;;;;;;;22.90;18.77;;;11.60;51.40;;;;;;5081855;28;20682;-51
2021/03/23 11:03:21;;;;;;;22.93;15.33;;;11.50;51.50;;;;;;5088934;28;20689;-50
2021/03/23 11:05:51;;;;;;;22.10;15.63;;;11.50;51.80;;;;;;5090951;28;20687;-48
2021/03/23 11:08:18;;;;;;;24.57;17.53;;;11.60;51.70;;;;;;5090139;28;20691;-51
2021/03/23 11:10:45;;;;;;;22.53;17.40;;;11.60;51.70;;;;;;5091225;28;20991;-50
2021/03/23 11:13:13;;;;;;;24.47;17.03;;;11.70;51.50;;;;;;5091227;28;20616;-51
2021/03/23 11:15:41;;;;;;;24.27;20.63;;;11.70;51.40;;;;;;5090673;28;20692;-51
2021/03/23 11:18:11;;;;;;;22.63;20.13;;;11.70;51.40;;;;;;5090017;28;20624;-49
2021/03/23 11:20:38;;;;;;;27.30;18.37;;;11.70;51.30;;;;;;5090245;28;21003;-49
2021/03/23 11:23:21;;;;;;;23.47;18.73;;;11.80;51.40;;;;;;5090874;28;20667;-51
2021/03/23 11:25:48;;;;;;;23.73;17.07;;;11.80;51.20;;;;;;5090754;28;20698;-50
2021/03/23 11:28:16;;;;;;;20.90;17.33;;;11.90;51.30;;;;;;5090589;28;20695;-51
2021/03/23 11:30:44;;;;;;;22.60;18.17;;;11.90;51.00;;;;;;5090557;28;20663;-50
2021/03/23 11:33:12;;;;;;;24.37;18.10;;;12.00;50.90;;;;;;5092478;28;20628;-49
2021/03/23 11:35:39;;;;;;;24.23;17.27;;;12.00;50.60;;;;;;5101027;28;21021;-51
2021/03/23 11:38:07;;;;;;;21.60;17.60;;;12.10;50.30;;;;;;5090677;28;20647;-50
2021/03/23 11:40:35;;;;;;;31.00;18.00;;;12.20;50.00;;;;;;5090214;28;20622;-49
2021/03/23 11:43:02;;;;;;;22.27;17.57;;;12.20;49.60;;;;;;5090571;28;20669;-50
2021/03/23 11:45:31;;;;;;;26.97;18.40;;;12.20;49.40;;;;;;5089921;28;20679;-51
2021/03/23 11:48:01;;;;;;;27.20;19.93;;;12.30;50.00;;;;;;5090159;28;20699;-51
2021/03/23 11:50:29;;;;;;;27.70;19.30;;;12.20;49.80;;;;;;5088917;28;21262;-50
2021/03/23 11:52:56;;;;;;;21.97;18.77;;;12.30;49.70;;;;;;5090138;28;21036;-50
2021/03/23 11:55:24;;;;;;;25.23;19.43;;;12.30;49.90;;;;;;5088655;28;20807;-50
2021/03/23 11:57:53;;;;;;;27.13;19.50;;;12.50;49.90;;;;;;5090341;28;20647;-50
2021/03/23 12:00:21;;;;;;;21.40;18.57;;;12.50;48.60;;;;;;5089773;28;20628;-50
2021/03/23 12:02:48;;;;;;;25.33;19.67;;;12.50;49.00;;;;;;5090987;28;20648;-50
2021/03/23 12:05:15;;;;;;;22.80;18.83;;;12.50;48.90;;;;;;5089780;28;21322;-50
2021/03/23 12:08:03;;;;;;;25.20;18.97;;;12.50;48.60;;;;;;5090144;28;20680;-50
2021/03/23 12:10:33;;;;;;;29.97;20.70;;;12.50;48.80;;;;;;5088410;28;21037;-52
2021/03/23 12:13:07;;;;;;;28.60;20.97;;;12.50;49.20;;;;;;5090034;28;20662;-52
2021/03/23 12:15:36;;;;;;;23.37;19.50;;;12.50;49.20;;;;;;5090102;28;21168;-53
2021/03/23 12:18:07;;;;;;;27.30;20.10;;;12.50;49.10;;;;;;5089897;28;20654;-49
2021/03/23 12:20:37;;;;;;;23.73;18.83;;;12.50;48.90;;;;;;5089709;28;20654;-50
2021/03/23 12:23:04;;;;;;;25.33;18.77;;;12.40;48.60;;;;;;5089920;28;20630;-50
2021/03/23 12:25:31;;;;;;;25.40;20.33;;;12.40;49.10;;;;;;5085742;28;20691;-51
2021/03/23 12:27:58;;;;;;;25.50;19.07;;;12.40;49.20;;;;;;5088045;28;20687;-49
2021/03/23 12:30:26;;;;;;;23.83;20.67;;;12.40;49.00;;;;;;5106396;28;21223;-51
2021/03/23 12:32:54;;;;;;;25.17;20.10;;;12.50;49.00;;;;;;5105568;28;20659;-50
2021/03/23 12:35:24;;;;;;;28.10;20.63;;;12.60;49.00;;;;;;5114325;28;20654;-52
2021/03/23 12:37:52;;;;;;;27.70;21.57;;;12.80;48.50;;;;;;5107870;27;20635;-51
2021/03/23 12:40:20;;;;;;;30.73;21.43;;;12.80;48.40;;;;;;5094087;28;20655;-49
2021/03/23 12:42:47;;;;;;;26.60;21.53;;;12.90;48.30;;;;;;5094191;28;20623;-50
2021/03/23 12:45:20;;;;;;;25.77;22.50;;;13.00;48.20;;;;;;5093710;28;20656;-49
2021/03/23 12:47:48;;;;;;;27.17;22.40;;;13.10;47.70;;;;;;5093324;28;20695;-50
2021/03/23 12:50:16;;;;;;;28.83;21.90;;;13.10;47.50;;;;;;5093517;28;20663;-50